sensor_id;sensor_type;location;lat;lon;timestamp;temperature;humidity
13256;DHT22;37913;48.370;10.930;2023-04-25T00:02:04;5.70;99.90
13256;DHT22;37913;48.370;10.930;2023-04-25T00:04:32;5.60;99.90
13256;DHT22;37913;48.370;10.930;2023-04-25T00:06:59;5.50;99.90
13256;DHT22;37913;48.370;10.930;2023-04-25T00:09:29;5.60;99.90
13256;DHT22;37913;48.370;10.930;2023-04-25T00:11:56;5.60;99.90
13256;DHT22;37913;48.370;10.930;2023-04-25T00:14:23;5.60;99.90
13256;DHT22;37913;48.370;10.930;2023-04-25T00:16:51;5.60;99.90
13256;DHT22;37913;48.370;10.930;2023-04-25T00:19:19;5.50;99.90
13256;DHT22;37913;48.370;10.930;2023-04-25T00:21:46;5.50;99.90
13256;DHT22;37913;48.370;10.930;2023-04-25T00:24:13;5.50;99.90
13256;DHT22;37913;48.370;10.930;2023-04-25T00:26:41;5.40;99.90
13256;DHT22;37913;48.370;10.930;2023-04-25T00:29:08;5.60;99.90
13256;DHT22;37913;48.370;10.930;2023-04-25T00:31:35;5.60;99.90
13256;DHT22;37913;48.370;10.930;2023-04-25T00:34:03;5.60;99.90
13256;DHT22;37913;48.370;10.930;2023-04-25T00:36:30;5.60;99.90
13256;DHT22;37913;48.370;10.930;2023-04-25T00:38:57;5.50;99.90
13256;DHT22;37913;48.370;10.930;2023-04-25T00:41:25;5.50;99.90
13256;DHT22;37913;48.370;10.930;2023-04-25T00:43:54;5.60;99.90
13256;DHT22;37913;48.370;10.930;2023-04-25T00:46:21;5.50;99.90
13256;DHT22;37913;48.370;10.930;2023-04-25T00:48:48;5.40;99.90
13256;DHT22;37913;48.370;10.930;2023-04-25T00:51:19;5.40;99.90
13256;DHT22;37913;48.370;10.930;2023-04-25T00:53:46;5.40;99.90
13256;DHT22;37913;48.370;10.930;2023-04-25T00:56:13;5.50;99.90
13256;DHT22;37913;48.370;10.930;2023-04-25T00:58:41;5.50;99.90
13256;DHT22;37913;48.370;10.930;2023-04-25T01:01:10;5.50;99.90
13256;DHT22;37913;48.370;10.930;2023-04-25T01:03:38;5.60;99.90
13256;DHT22;37913;48.370;10.930;2023-04-25T01:06:08;5.70;99.90
13256;DHT22;37913;48.370;10.930;2023-04-25T01:08:36;5.70;99.90
13256;DHT22;37913;48.370;10.930;2023-04-25T01:11:03;5.70;99.90
13256;DHT22;37913;48.370;10.930;2023-04-25T01:13:30;5.60;99.90
13256;DHT22;37913;48.370;10.930;2023-04-25T01:15:58;5.60;99.90
13256;DHT22;37913;48.370;10.930;2023-04-25T01:18:26;5.70;99.90
13256;DHT22;37913;48.370;10.930;2023-04-25T01:20:53;5.70;99.90
13256;DHT22;37913;48.370;10.930;2023-04-25T01:23:22;5.60;99.90
13256;DHT22;37913;48.370;10.930;2023-04-25T01:25:50;5.50;99.90
13256;DHT22;37913;48.370;10.930;2023-04-25T01:28:17;5.50;99.90
13256;DHT22;37913;48.370;10.930;2023-04-25T01:30:45;5.40;99.90
13256;DHT22;37913;48.370;10.930;2023-04-25T01:33:14;5.40;99.90
13256;DHT22;37913;48.370;10.930;2023-04-25T01:35:42;5.50;99.90
13256;DHT22;37913;48.370;10.930;2023-04-25T01:38:08;5.50;99.90
13256;DHT22;37913;48.370;10.930;2023-04-25T01:40:39;5.50;99.90
13256;DHT22;37913;48.370;10.930;2023-04-25T01:43:07;5.50;99.90
13256;DHT22;37913;48.370;10.930;2023-04-25T01:45:36;5.40;99.90
13256;DHT22;37913;48.370;10.930;2023-04-25T01:48:05;5.40;99.90
13256;DHT22;37913;48.370;10.930;2023-04-25T01:50:32;5.40;99.90
13256;DHT22;37913;48.370;10.930;2023-04-25T01:52:59;5.30;99.90
13256;DHT22;37913;48.370;10.930;2023-04-25T01:55:27;5.20;99.90
13256;DHT22;37913;48.370;10.930;2023-04-25T01:57:55;5.30;99.90
13256;DHT22;37913;48.370;10.930;2023-04-25T02:00:22;5.30;99.90
13256;DHT22;37913;48.370;10.930;2023-04-25T02:02:49;5.30;99.90
13256;DHT22;37913;48.370;10.930;2023-04-25T02:05:19;5.30;99.90
13256;DHT22;37913;48.370;10.930;2023-04-25T02:07:46;5.30;99.90
13256;DHT22;37913;48.370;10.930;2023-04-25T02:10:14;5.20;99.90
13256;DHT22;37913;48.370;10.930;2023-04-25T02:12:41;5.10;99.90
13256;DHT22;37913;48.370;10.930;2023-04-25T02:15:10;5.10;99.90
13256;DHT22;37913;48.370;10.930;2023-04-25T02:17:37;5.10;99.90
13256;DHT22;37913;48.370;10.930;2023-04-25T02:20:05;5.10;99.90
13256;DHT22;37913;48.370;10.930;2023-04-25T02:22:33;5.10;99.90
13256;DHT22;37913;48.370;10.930;2023-04-25T02:25:01;5.20;99.90
13256;DHT22;37913;48.370;10.930;2023-04-25T02:27:30;5.20;99.90
13256;DHT22;37913;48.370;10.930;2023-04-25T02:29:57;5.20;99.90
13256;DHT22;37913;48.370;10.930;2023-04-25T02:32:25;5.30;99.90
13256;DHT22;37913;48.370;10.930;2023-04-25T02:34:52;5.40;99.90
13256;DHT22;37913;48.370;10.930;2023-04-25T02:37:19;5.50;1.00
13256;DHT22;37913;48.370;10.930;2023-04-25T02:39:46;5.60;1.00
13256;DHT22;37913;48.370;10.930;2023-04-25T02:42:13;5.60;1.00
13256;DHT22;37913;48.370;10.930;2023-04-25T02:44:39;5.70;1.00
13256;DHT22;37913;48.370;10.930;2023-04-25T02:47:06;5.70;1.00
13256;DHT22;37913;48.370;10.930;2023-04-25T02:49:35;5.70;1.00
13256;DHT22;37913;48.370;10.930;2023-04-25T02:52:02;5.70;1.00
13256;DHT22;37913;48.370;10.930;2023-04-25T02:54:30;5.70;1.00
13256;DHT22;37913;48.370;10.930;2023-04-25T02:56:56;5.80;1.00
13256;DHT22;37913;48.370;10.930;2023-04-25T02:59:23;5.90;1.00
13256;DHT22;37913;48.370;10.930;2023-04-25T03:01:50;5.80;1.00
13256;DHT22;37913;48.370;10.930;2023-04-25T03:04:17;5.90;1.00
13256;DHT22;37913;48.370;10.930;2023-04-25T03:06:46;6.00;1.00
13256;DHT22;37913;48.370;10.930;2023-04-25T03:09:13;6.00;1.00
13256;DHT22;37913;48.370;10.930;2023-04-25T03:11:40;6.10;1.00
13256;DHT22;37913;48.370;10.930;2023-04-25T03:14:06;6.10;1.00
13256;DHT22;37913;48.370;10.930;2023-04-25T03:16:33;6.10;1.00
13256;DHT22;37913;48.370;10.930;2023-04-25T03:19:00;6.20;1.00
13256;DHT22;37913;48.370;10.930;2023-04-25T03:21:27;6.20;1.00
13256;DHT22;37913;48.370;10.930;2023-04-25T03:23:56;6.30;99.90
13256;DHT22;37913;48.370;10.930;2023-04-25T03:26:23;6.50;99.90
13256;DHT22;37913;48.370;10.930;2023-04-25T03:28:50;6.70;1.00
13256;DHT22;37913;48.370;10.930;2023-04-25T03:31:17;6.80;99.90
13256;DHT22;37913;48.370;10.930;2023-04-25T03:33:44;6.80;1.00
13256;DHT22;37913;48.370;10.930;2023-04-25T03:36:11;6.80;99.90
13256;DHT22;37913;48.370;10.930;2023-04-25T03:38:38;6.80;1.00
13256;DHT22;37913;48.370;10.930;2023-04-25T03:41:08;6.70;1.00
13256;DHT22;37913;48.370;10.930;2023-04-25T03:43:35;6.70;1.00
13256;DHT22;37913;48.370;10.930;2023-04-25T03:46:02;6.70;1.00
13256;DHT22;37913;48.370;10.930;2023-04-25T03:48:29;6.70;99.90
13256;DHT22;37913;48.370;10.930;2023-04-25T03:50:55;6.70;53.90
13256;DHT22;37913;48.370;10.930;2023-04-25T03:53:22;6.60;99.90
13256;DHT22;37913;48.370;10.930;2023-04-25T03:55:49;6.60;1.00
13256;DHT22;37913;48.370;10.930;2023-04-25T03:58:18;6.60;1.00
13256;DHT22;37913;48.370;10.930;2023-04-25T04:00:45;6.60;1.00
13256;DHT22;37913;48.370;10.930;2023-04-25T04:03:11;6.70;1.00
13256;DHT22;37913;48.370;10.930;2023-04-25T04:05:38;6.50;1.00
13256;DHT22;37913;48.370;10.930;2023-04-25T04:08:06;6.60;1.00
13256;DHT22;37913;48.370;10.930;2023-04-25T04:10:33;6.60;1.00
13256;DHT22;37913;48.370;10.930;2023-04-25T04:13:00;6.60;1.60
13256;DHT22;37913;48.370;10.930;2023-04-25T04:15:28;6.60;1.00
13256;DHT22;37913;48.370;10.930;2023-04-25T04:17:58;6.70;99.90
13256;DHT22;37913;48.370;10.930;2023-04-25T04:20:28;6.70;1.00
13256;DHT22;37913;48.370;10.930;2023-04-25T04:22:55;6.60;1.00
13256;DHT22;37913;48.370;10.930;2023-04-25T04:25:22;6.50;99.90
13256;DHT22;37913;48.370;10.930;2023-04-25T04:27:50;6.70;99.90
13256;DHT22;37913;48.370;10.930;2023-04-25T04:30:21;6.60;19.30
13256;DHT22;37913;48.370;10.930;2023-04-25T04:32:51;6.70;99.90
13256;DHT22;37913;48.370;10.930;2023-04-25T04:35:18;6.70;1.10
13256;DHT22;37913;48.370;10.930;2023-04-25T04:37:45;6.80;1.00
13256;DHT22;37913;48.370;10.930;2023-04-25T04:40:13;6.70;1.00
13256;DHT22;37913;48.370;10.930;2023-04-25T04:42:41;6.50;1.00
13256;DHT22;37913;48.370;10.930;2023-04-25T04:45:09;6.70;1.00
13256;DHT22;37913;48.370;10.930;2023-04-25T04:47:36;6.70;99.90
13256;DHT22;37913;48.370;10.930;2023-04-25T04:50:07;6.70;99.90
13256;DHT22;37913;48.370;10.930;2023-04-25T04:52:35;6.70;1.00
13256;DHT22;37913;48.370;10.930;2023-04-25T04:57:38;6.70;99.90
13256;DHT22;37913;48.370;10.930;2023-04-25T05:00:06;6.70;1.00
13256;DHT22;37913;48.370;10.930;2023-04-25T05:02:37;6.80;1.00
13256;DHT22;37913;48.370;10.930;2023-04-25T05:05:06;6.80;1.00
13256;DHT22;37913;48.370;10.930;2023-04-25T05:07:35;6.80;1.00
13256;DHT22;37913;48.370;10.930;2023-04-25T05:10:03;6.80;1.00
13256;DHT22;37913;48.370;10.930;2023-04-25T05:12:41;6.80;1.00
13256;DHT22;37913;48.370;10.930;2023-04-25T05:15:08;6.80;1.00
13256;DHT22;37913;48.370;10.930;2023-04-25T05:17:35;6.80;99.90
13256;DHT22;37913;48.370;10.930;2023-04-25T05:20:12;6.80;1.00
13256;DHT22;37913;48.370;10.930;2023-04-25T05:22:39;6.70;85.20
13256;DHT22;37913;48.370;10.930;2023-04-25T05:25:08;6.00;1.00
13256;DHT22;37913;48.370;10.930;2023-04-25T05:27:35;5.70;1.00
13256;DHT22;37913;48.370;10.930;2023-04-25T05:30:02;5.60;52.70
13256;DHT22;37913;48.370;10.930;2023-04-25T05:32:29;5.60;93.10
13256;DHT22;37913;48.370;10.930;2023-04-25T05:34:56;5.40;99.90
13256;DHT22;37913;48.370;10.930;2023-04-25T05:37:24;5.40;99.90
13256;DHT22;37913;48.370;10.930;2023-04-25T05:39:51;5.40;99.90
13256;DHT22;37913;48.370;10.930;2023-04-25T05:42:19;5.40;99.90
13256;DHT22;37913;48.370;10.930;2023-04-25T05:44:46;5.50;99.90
13256;DHT22;37913;48.370;10.930;2023-04-25T05:47:13;5.60;99.90
13256;DHT22;37913;48.370;10.930;2023-04-25T05:49:40;5.60;99.90
13256;DHT22;37913;48.370;10.930;2023-04-25T05:52:07;5.80;99.90
13256;DHT22;37913;48.370;10.930;2023-04-25T05:54:36;6.00;99.90
13256;DHT22;37913;48.370;10.930;2023-04-25T05:57:03;6.00;99.90
13256;DHT22;37913;48.370;10.930;2023-04-25T05:59:30;5.90;99.90
13256;DHT22;37913;48.370;10.930;2023-04-25T06:01:57;6.10;99.90
13256;DHT22;37913;48.370;10.930;2023-04-25T06:04:25;6.10;99.90
13256;DHT22;37913;48.370;10.930;2023-04-25T06:06:52;6.10;99.90
13256;DHT22;37913;48.370;10.930;2023-04-25T06:09:19;6.20;99.90
13256;DHT22;37913;48.370;10.930;2023-04-25T06:11:47;6.50;99.90
13256;DHT22;37913;48.370;10.930;2023-04-25T06:14:14;6.20;99.90
13256;DHT22;37913;48.370;10.930;2023-04-25T06:16:41;6.10;99.90
13256;DHT22;37913;48.370;10.930;2023-04-25T06:19:09;5.90;99.90
13256;DHT22;37913;48.370;10.930;2023-04-25T06:21:36;6.00;99.90
13256;DHT22;37913;48.370;10.930;2023-04-25T06:24:04;6.30;99.90
13256;DHT22;37913;48.370;10.930;2023-04-25T06:26:31;6.60;99.90
13256;DHT22;37913;48.370;10.930;2023-04-25T06:28:59;6.60;99.90
13256;DHT22;37913;48.370;10.930;2023-04-25T06:31:26;7.30;99.90
13256;DHT22;37913;48.370;10.930;2023-04-25T06:33:54;7.50;99.90
13256;DHT22;37913;48.370;10.930;2023-04-25T06:36:22;7.60;99.90
13256;DHT22;37913;48.370;10.930;2023-04-25T06:38:51;7.30;99.90
13256;DHT22;37913;48.370;10.930;2023-04-25T06:41:19;8.00;99.90
13256;DHT22;37913;48.370;10.930;2023-04-25T06:43:46;8.70;99.90
13256;DHT22;37913;48.370;10.930;2023-04-25T06:46:14;8.90;99.90
13256;DHT22;37913;48.370;10.930;2023-04-25T06:48:41;8.40;99.90
13256;DHT22;37913;48.370;10.930;2023-04-25T06:51:08;7.60;99.90
13256;DHT22;37913;48.370;10.930;2023-04-25T06:53:35;8.00;99.90
13256;DHT22;37913;48.370;10.930;2023-04-25T06:56:03;7.90;99.90
13256;DHT22;37913;48.370;10.930;2023-04-25T06:58:31;7.60;99.90
13256;DHT22;37913;48.370;10.930;2023-04-25T07:00:58;7.80;99.90
13256;DHT22;37913;48.370;10.930;2023-04-25T07:03:27;7.70;99.90
13256;DHT22;37913;48.370;10.930;2023-04-25T07:05:54;7.60;99.90
13256;DHT22;37913;48.370;10.930;2023-04-25T07:08:21;7.10;99.90
13256;DHT22;37913;48.370;10.930;2023-04-25T07:10:48;7.20;99.90
13256;DHT22;37913;48.370;10.930;2023-04-25T07:13:15;6.80;99.90
13256;DHT22;37913;48.370;10.930;2023-04-25T07:15:48;7.10;99.90
13256;DHT22;37913;48.370;10.930;2023-04-25T07:18:15;7.60;99.90
13256;DHT22;37913;48.370;10.930;2023-04-25T07:20:44;8.40;99.90
13256;DHT22;37913;48.370;10.930;2023-04-25T07:23:11;8.20;99.90
13256;DHT22;37913;48.370;10.930;2023-04-25T07:25:38;8.00;99.90
13256;DHT22;37913;48.370;10.930;2023-04-25T07:28:05;8.30;99.90
13256;DHT22;37913;48.370;10.930;2023-04-25T07:30:32;9.30;99.90
13256;DHT22;37913;48.370;10.930;2023-04-25T07:33:01;9.60;1.00
13256;DHT22;37913;48.370;10.930;2023-04-25T07:35:28;9.40;73.20
13256;DHT22;37913;48.370;10.930;2023-04-25T07:37:56;9.90;1.00
13256;DHT22;37913;48.370;10.930;2023-04-25T07:40:24;10.60;1.00
13256;DHT22;37913;48.370;10.930;2023-04-25T07:42:52;11.20;1.00
13256;DHT22;37913;48.370;10.930;2023-04-25T07:45:20;11.70;3.20
13256;DHT22;37913;48.370;10.930;2023-04-25T07:47:47;13.90;1.00
13256;DHT22;37913;48.370;10.930;2023-04-25T07:50:15;15.70;99.90
13256;DHT22;37913;48.370;10.930;2023-04-25T07:52:42;17.20;99.90
13256;DHT22;37913;48.370;10.930;2023-04-25T07:55:10;18.70;99.90
13256;DHT22;37913;48.370;10.930;2023-04-25T07:57:38;18.70;99.90
13256;DHT22;37913;48.370;10.930;2023-04-25T08:00:06;18.40;99.90
13256;DHT22;37913;48.370;10.930;2023-04-25T08:02:35;15.70;99.90
13256;DHT22;37913;48.370;10.930;2023-04-25T08:05:02;17.80;99.90
13256;DHT22;37913;48.370;10.930;2023-04-25T08:07:30;19.60;99.90
13256;DHT22;37913;48.370;10.930;2023-04-25T08:09:56;19.80;99.90
13256;DHT22;37913;48.370;10.930;2023-04-25T08:12:25;19.70;99.90
13256;DHT22;37913;48.370;10.930;2023-04-25T08:14:52;19.60;99.90
13256;DHT22;37913;48.370;10.930;2023-04-25T08:17:20;21.20;99.70
13256;DHT22;37913;48.370;10.930;2023-04-25T08:19:47;21.80;98.00
13256;DHT22;37913;48.370;10.930;2023-04-25T08:22:14;21.00;96.00
13256;DHT22;37913;48.370;10.930;2023-04-25T08:24:41;20.80;95.90
13256;DHT22;37913;48.370;10.930;2023-04-25T08:27:08;20.30;95.40
13256;DHT22;37913;48.370;10.930;2023-04-25T08:29:36;19.30;94.40
13256;DHT22;37913;48.370;10.930;2023-04-25T08:32:04;18.80;97.00
13256;DHT22;37913;48.370;10.930;2023-04-25T08:34:31;19.00;94.90
13256;DHT22;37913;48.370;10.930;2023-04-25T08:36:58;18.50;95.70
13256;DHT22;37913;48.370;10.930;2023-04-25T08:39:25;19.30;98.00
13256;DHT22;37913;48.370;10.930;2023-04-25T08:41:52;20.30;95.10
13256;DHT22;37913;48.370;10.930;2023-04-25T08:44:21;21.30;92.50
13256;DHT22;37913;48.370;10.930;2023-04-25T08:46:51;23.10;91.30
13256;DHT22;37913;48.370;10.930;2023-04-25T08:49:19;23.80;83.30
13256;DHT22;37913;48.370;10.930;2023-04-25T08:51:47;21.70;87.40
13256;DHT22;37913;48.370;10.930;2023-04-25T08:54:16;18.90;84.90
13256;DHT22;37913;48.370;10.930;2023-04-25T08:56:45;19.90;90.90
13256;DHT22;37913;48.370;10.930;2023-04-25T08:59:14;20.90;82.90
13256;DHT22;37913;48.370;10.930;2023-04-25T09:01:41;20.90;87.40
13256;DHT22;37913;48.370;10.930;2023-04-25T09:04:12;20.60;85.80
13256;DHT22;37913;48.370;10.930;2023-04-25T09:06:41;18.10;87.10
13256;DHT22;37913;48.370;10.930;2023-04-25T09:09:08;15.90;92.50
13256;DHT22;37913;48.370;10.930;2023-04-25T09:11:37;15.30;95.80
13256;DHT22;37913;48.370;10.930;2023-04-25T09:14:14;13.50;99.60
13256;DHT22;37913;48.370;10.930;2023-04-25T09:17:03;12.50;99.90
13256;DHT22;37913;48.370;10.930;2023-04-25T09:19:33;12.60;99.90
13256;DHT22;37913;48.370;10.930;2023-04-25T09:22:02;12.90;99.90
13256;DHT22;37913;48.370;10.930;2023-04-25T09:24:34;13.40;99.90
13256;DHT22;37913;48.370;10.930;2023-04-25T09:27:06;13.90;99.90
13256;DHT22;37913;48.370;10.930;2023-04-25T09:29:36;15.20;99.90
13256;DHT22;37913;48.370;10.930;2023-04-25T09:32:21;15.80;99.90
13256;DHT22;37913;48.370;10.930;2023-04-25T09:34:51;16.80;99.80
13256;DHT22;37913;48.370;10.930;2023-04-25T09:37:20;17.50;97.50
13256;DHT22;37913;48.370;10.930;2023-04-25T09:39:48;17.80;97.20
13256;DHT22;37913;48.370;10.930;2023-04-25T09:42:16;17.20;98.00
13256;DHT22;37913;48.370;10.930;2023-04-25T09:44:46;16.80;96.20
13256;DHT22;37913;48.370;10.930;2023-04-25T09:47:15;15.90;95.90
13256;DHT22;37913;48.370;10.930;2023-04-25T09:49:44;15.60;96.90
13256;DHT22;37913;48.370;10.930;2023-04-25T09:52:16;14.60;98.10
13256;DHT22;37913;48.370;10.930;2023-04-25T09:54:44;14.00;99.90
13256;DHT22;37913;48.370;10.930;2023-04-25T09:57:13;13.50;99.90
13256;DHT22;37913;48.370;10.930;2023-04-25T09:59:44;13.20;99.90
13256;DHT22;37913;48.370;10.930;2023-04-25T10:02:15;12.30;99.90
13256;DHT22;37913;48.370;10.930;2023-04-25T10:04:44;11.80;99.90
13256;DHT22;37913;48.370;10.930;2023-04-25T10:07:12;11.10;99.90
13256;DHT22;37913;48.370;10.930;2023-04-25T10:09:40;10.60;99.90
13256;DHT22;37913;48.370;10.930;2023-04-25T10:12:08;10.00;99.90
13256;DHT22;37913;48.370;10.930;2023-04-25T10:14:35;9.60;99.90
13256;DHT22;37913;48.370;10.930;2023-04-25T10:17:03;9.40;99.90
13256;DHT22;37913;48.370;10.930;2023-04-25T10:19:31;9.20;99.90
13256;DHT22;37913;48.370;10.930;2023-04-25T10:22:05;9.20;99.90
13256;DHT22;37913;48.370;10.930;2023-04-25T10:24:34;9.50;99.90
13256;DHT22;37913;48.370;10.930;2023-04-25T10:27:04;9.80;99.90
13256;DHT22;37913;48.370;10.930;2023-04-25T10:29:31;10.40;99.90
13256;DHT22;37913;48.370;10.930;2023-04-25T10:31:58;10.80;99.90
13256;DHT22;37913;48.370;10.930;2023-04-25T10:34:38;11.10;99.90
13256;DHT22;37913;48.370;10.930;2023-04-25T10:37:09;11.90;99.90
13256;DHT22;37913;48.370;10.930;2023-04-25T10:39:38;12.50;99.90
13256;DHT22;37913;48.370;10.930;2023-04-25T10:42:07;13.10;99.90
13256;DHT22;37913;48.370;10.930;2023-04-25T10:44:37;13.90;99.90
13256;DHT22;37913;48.370;10.930;2023-04-25T10:47:07;14.20;99.90
13256;DHT22;37913;48.370;10.930;2023-04-25T10:49:36;14.90;99.90
13256;DHT22;37913;48.370;10.930;2023-04-25T10:52:18;15.30;99.90
13256;DHT22;37913;48.370;10.930;2023-04-25T10:54:51;15.60;99.90
13256;DHT22;37913;48.370;10.930;2023-04-25T10:57:39;15.50;99.90
13256;DHT22;37913;48.370;10.930;2023-04-25T11:00:12;15.30;99.90
13256;DHT22;37913;48.370;10.930;2023-04-25T11:02:45;15.80;99.90
13256;DHT22;37913;48.370;10.930;2023-04-25T11:05:20;15.80;99.90
13256;DHT22;37913;48.370;10.930;2023-04-25T11:07:50;16.40;99.90
13256;DHT22;37913;48.370;10.930;2023-04-25T11:10:18;16.90;99.90
13256;DHT22;37913;48.370;10.930;2023-04-25T11:12:47;16.70;99.90
13256;DHT22;37913;48.370;10.930;2023-04-25T11:15:15;17.10;99.90
13256;DHT22;37913;48.370;10.930;2023-04-25T11:17:42;17.10;99.90
13256;DHT22;37913;48.370;10.930;2023-04-25T11:20:12;17.50;99.90
13256;DHT22;37913;48.370;10.930;2023-04-25T11:22:41;17.20;99.90
13256;DHT22;37913;48.370;10.930;2023-04-25T11:25:10;16.60;99.90
13256;DHT22;37913;48.370;10.930;2023-04-25T11:27:38;16.20;99.90
13256;DHT22;37913;48.370;10.930;2023-04-25T11:30:14;15.50;99.90
13256;DHT22;37913;48.370;10.930;2023-04-25T11:32:43;14.90;99.90
13256;DHT22;37913;48.370;10.930;2023-04-25T11:35:11;14.50;99.90
13256;DHT22;37913;48.370;10.930;2023-04-25T11:37:39;14.40;99.90
13256;DHT22;37913;48.370;10.930;2023-04-25T11:40:08;13.60;99.90
13256;DHT22;37913;48.370;10.930;2023-04-25T11:42:37;12.40;99.90
13256;DHT22;37913;48.370;10.930;2023-04-25T11:45:06;9.90;99.90
13256;DHT22;37913;48.370;10.930;2023-04-25T11:47:35;8.10;99.90
13256;DHT22;37913;48.370;10.930;2023-04-25T11:50:04;7.50;99.90
13256;DHT22;37913;48.370;10.930;2023-04-25T11:52:41;7.30;99.90
13256;DHT22;37913;48.370;10.930;2023-04-25T11:55:09;7.40;99.90
13256;DHT22;37913;48.370;10.930;2023-04-25T11:57:39;7.20;99.90
13256;DHT22;37913;48.370;10.930;2023-04-25T12:00:09;7.10;99.90
13256;DHT22;37913;48.370;10.930;2023-04-25T12:02:40;7.00;99.90
13256;DHT22;37913;48.370;10.930;2023-04-25T12:05:08;7.00;99.90
13256;DHT22;37913;48.370;10.930;2023-04-25T12:07:35;7.00;99.90
13256;DHT22;37913;48.370;10.930;2023-04-25T12:10:07;7.00;99.90
13256;DHT22;37913;48.370;10.930;2023-04-25T12:12:36;7.20;99.90
13256;DHT22;37913;48.370;10.930;2023-04-25T12:15:13;7.60;99.90
13256;DHT22;37913;48.370;10.930;2023-04-25T12:17:45;7.60;99.90
13256;DHT22;37913;48.370;10.930;2023-04-25T12:20:13;7.40;99.90
13256;DHT22;37913;48.370;10.930;2023-04-25T12:22:42;7.30;99.90
13256;DHT22;37913;48.370;10.930;2023-04-25T12:25:12;7.40;99.90
13256;DHT22;37913;48.370;10.930;2023-04-25T12:27:40;7.50;99.90
13256;DHT22;37913;48.370;10.930;2023-04-25T12:30:09;7.70;99.90
13256;DHT22;37913;48.370;10.930;2023-04-25T12:32:37;7.80;99.90
13256;DHT22;37913;48.370;10.930;2023-04-25T12:35:08;7.70;99.90
13256;DHT22;37913;48.370;10.930;2023-04-25T12:37:35;7.10;99.90
13256;DHT22;37913;48.370;10.930;2023-04-25T12:40:02;7.00;99.90
13256;DHT22;37913;48.370;10.930;2023-04-25T12:42:30;6.90;99.90
13256;DHT22;37913;48.370;10.930;2023-04-25T12:44:57;7.00;99.90
13256;DHT22;37913;48.370;10.930;2023-04-25T12:47:24;7.20;99.90
13256;DHT22;37913;48.370;10.930;2023-04-25T12:49:53;7.30;99.90
13256;DHT22;37913;48.370;10.930;2023-04-25T12:52:21;7.50;99.90
13256;DHT22;37913;48.370;10.930;2023-04-25T12:54:48;7.30;99.90
13256;DHT22;37913;48.370;10.930;2023-04-25T12:57:15;6.90;99.90
13256;DHT22;37913;48.370;10.930;2023-04-25T12:59:42;6.40;99.90
13256;DHT22;37913;48.370;10.930;2023-04-25T13:02:09;6.20;99.90
13256;DHT22;37913;48.370;10.930;2023-04-25T13:04:37;6.00;99.90
13256;DHT22;37913;48.370;10.930;2023-04-25T13:07:05;6.00;99.90
13256;DHT22;37913;48.370;10.930;2023-04-25T13:09:33;5.70;99.90
13256;DHT22;37913;48.370;10.930;2023-04-25T13:12:00;5.70;99.90
13256;DHT22;37913;48.370;10.930;2023-04-25T13:14:27;5.90;99.90
13256;DHT22;37913;48.370;10.930;2023-04-25T13:16:54;6.10;99.90
13256;DHT22;37913;48.370;10.930;2023-04-25T13:19:23;6.40;99.90
13256;DHT22;37913;48.370;10.930;2023-04-25T13:21:51;5.90;99.90
13256;DHT22;37913;48.370;10.930;2023-04-25T13:24:18;6.40;99.90
13256;DHT22;37913;48.370;10.930;2023-04-25T13:26:46;6.00;99.90
13256;DHT22;37913;48.370;10.930;2023-04-25T13:29:14;6.20;99.90
13256;DHT22;37913;48.370;10.930;2023-04-25T13:31:42;6.50;99.90
13256;DHT22;37913;48.370;10.930;2023-04-25T13:34:09;7.40;99.90
13256;DHT22;37913;48.370;10.930;2023-04-25T13:36:37;8.00;99.90
13256;DHT22;37913;48.370;10.930;2023-04-25T13:39:05;7.40;99.90
13256;DHT22;37913;48.370;10.930;2023-04-25T13:41:32;7.40;99.90
13256;DHT22;37913;48.370;10.930;2023-04-25T13:44:02;6.80;99.90
13256;DHT22;37913;48.370;10.930;2023-04-25T13:46:29;7.00;99.90
13256;DHT22;37913;48.370;10.930;2023-04-25T13:48:56;7.10;99.90
13256;DHT22;37913;48.370;10.930;2023-04-25T13:51:23;7.50;99.90
13256;DHT22;37913;48.370;10.930;2023-04-25T13:53:49;7.50;99.90
13256;DHT22;37913;48.370;10.930;2023-04-25T13:56:17;7.70;99.90
13256;DHT22;37913;48.370;10.930;2023-04-25T13:58:45;7.70;99.90
13256;DHT22;37913;48.370;10.930;2023-04-25T14:01:14;7.60;99.90
13256;DHT22;37913;48.370;10.930;2023-04-25T14:03:41;7.60;99.90
13256;DHT22;37913;48.370;10.930;2023-04-25T14:06:08;7.60;99.90
13256;DHT22;37913;48.370;10.930;2023-04-25T14:08:36;7.50;99.90
13256;DHT22;37913;48.370;10.930;2023-04-25T14:11:04;7.40;99.90
13256;DHT22;37913;48.370;10.930;2023-04-25T14:13:31;7.40;99.90
13256;DHT22;37913;48.370;10.930;2023-04-25T14:15:59;7.40;99.90
13256;DHT22;37913;48.370;10.930;2023-04-25T14:18:28;7.20;99.90
13256;DHT22;37913;48.370;10.930;2023-04-25T14:20:55;7.50;99.90
13256;DHT22;37913;48.370;10.930;2023-04-25T14:23:22;7.50;99.90
13256;DHT22;37913;48.370;10.930;2023-04-25T14:25:49;7.70;99.90
13256;DHT22;37913;48.370;10.930;2023-04-25T14:28:16;8.00;99.90
13256;DHT22;37913;48.370;10.930;2023-04-25T14:30:43;7.40;99.90
13256;DHT22;37913;48.370;10.930;2023-04-25T14:33:10;7.40;99.90
13256;DHT22;37913;48.370;10.930;2023-04-25T14:35:38;7.60;99.90
13256;DHT22;37913;48.370;10.930;2023-04-25T14:38:05;7.70;99.90
13256;DHT22;37913;48.370;10.930;2023-04-25T14:40:34;7.90;99.90
13256;DHT22;37913;48.370;10.930;2023-04-25T14:43:01;8.20;99.90
13256;DHT22;37913;48.370;10.930;2023-04-25T14:45:28;8.10;99.90
13256;DHT22;37913;48.370;10.930;2023-04-25T14:47:55;8.10;99.90
13256;DHT22;37913;48.370;10.930;2023-04-25T14:50:22;8.30;99.90
13256;DHT22;37913;48.370;10.930;2023-04-25T14:52:50;8.50;99.90
13256;DHT22;37913;48.370;10.930;2023-04-25T14:55:18;8.90;99.90
13256;DHT22;37913;48.370;10.930;2023-04-25T14:57:45;9.30;99.90
13256;DHT22;37913;48.370;10.930;2023-04-25T15:00:13;8.80;99.90
13256;DHT22;37913;48.370;10.930;2023-04-25T15:02:42;8.50;99.90
13256;DHT22;37913;48.370;10.930;2023-04-25T15:05:09;8.10;99.90
13256;DHT22;37913;48.370;10.930;2023-04-25T15:07:36;8.10;99.90
13256;DHT22;37913;48.370;10.930;2023-04-25T15:10:07;7.70;99.90
13256;DHT22;37913;48.370;10.930;2023-04-25T15:12:39;7.60;99.90
13256;DHT22;37913;48.370;10.930;2023-04-25T15:15:09;7.50;99.90
13256;DHT22;37913;48.370;10.930;2023-04-25T15:17:37;7.50;99.90
13256;DHT22;37913;48.370;10.930;2023-04-25T15:20:05;7.50;99.90
13256;DHT22;37913;48.370;10.930;2023-04-25T15:22:33;7.20;99.90
13256;DHT22;37913;48.370;10.930;2023-04-25T15:25:00;7.10;99.90
13256;DHT22;37913;48.370;10.930;2023-04-25T15:27:29;7.20;99.90
13256;DHT22;37913;48.370;10.930;2023-04-25T15:29:57;7.40;99.90
13256;DHT22;37913;48.370;10.930;2023-04-25T15:32:23;7.30;99.90
13256;DHT22;37913;48.370;10.930;2023-04-25T15:34:51;7.30;99.90
13256;DHT22;37913;48.370;10.930;2023-04-25T15:37:17;7.30;99.90
13256;DHT22;37913;48.370;10.930;2023-04-25T15:39:44;7.40;99.90